Time;durP1;ratioP1;P1;durP2;ratioP2;P2;SDS_P1;SDS_P2;PMS_P1;PMS_P2;Temp;Humidity;BMP_temperature;BMP_pressure;BME280_temperature;BME280_humidity;BME280_pressure;Samples;Min_cycle;Max_cycle;Signal;HPM_P1;HPM_P2
2023/05/10 00:01:15;;;;;;;15.93;2.50;;;;;;;;;;6269210;22;20309;-76
2023/05/10 00:03:41;;;;;;;12.80;2.50;;;;;;;;;;6269324;22;20011;-76
2023/05/10 00:06:06;;;;;;;13.30;2.55;;;;;;;;;;6268565;22;20093;-76
2023/05/10 00:08:32;;;;;;;13.75;2.97;;;;;;;;;;6269571;22;20010;-76
2023/05/10 00:10:57;;;;;;;13.10;2.65;;;;;;;;;;6241875;22;20008;-77
2023/05/10 00:13:23;;;;;;;14.10;2.80;;;;;;;;;;6269360;22;20086;-76
2023/05/10 00:15:48;;;;;;;10.43;2.50;;;;;;;;;;6269213;22;20096;-75
2023/05/10 00:18:14;;;;;;;18.30;2.97;;;;;;;;;;6269437;22;20030;-77
2023/05/10 00:20:39;;;;;;;14.95;2.55;;;;;;;;;;6269097;22;20033;-77
2023/05/10 00:23:05;;;;;;;19.38;3.35;;;;;;;;;;6268949;22;20010;-77
2023/05/10 00:25:30;;;;;;;12.75;2.50;;;;;;;;;;6269108;22;20455;-77
2023/05/10 00:27:57;;;;;;;17.67;3.05;;;;;;;;;;6242104;22;20030;-77
2023/05/10 00:30:22;;;;;;;15.85;2.72;;;;;;;;;;6269391;22;20042;-77
2023/05/10 00:32:49;;;;;;;18.27;3.00;;;;;;;;;;6269245;22;20004;-77
2023/05/10 00:35:15;;;;;;;17.50;3.00;;;;;;;;;;6269067;22;20003;-77
2023/05/10 00:37:40;;;;;;;12.80;2.47;;;;;;;;;;6270034;22;20003;-78
2023/05/10 00:40:07;;;;;;;21.85;3.22;;;;;;;;;;6269356;22;20575;-76
2023/05/10 00:42:33;;;;;;;19.63;3.13;;;;;;;;;;6268832;22;20038;-78
2023/05/10 00:44:58;;;;;;;18.65;3.45;;;;;;;;;;6268736;22;20467;-76
2023/05/10 00:47:24;;;;;;;18.48;2.80;;;;;;;;;;6269654;22;20006;-77
2023/05/10 00:49:50;;;;;;;24.05;3.63;;;;;;;;;;6269842;22;20008;-76
2023/05/10 00:52:15;;;;;;;15.02;2.65;;;;;;;;;;6269888;22;20433;-77
2023/05/10 00:54:41;;;;;;;19.70;3.30;;;;;;;;;;6270669;22;20043;-76
2023/05/10 00:57:07;;;;;;;24.17;3.13;;;;;;;;;;6243612;22;20107;-77
2023/05/10 00:59:32;;;;;;;18.73;3.22;;;;;;;;;;6271141;22;20309;-77
2023/05/10 01:01:58;;;;;;;20.88;3.55;;;;;;;;;;6271227;22;20007;-79
2023/05/10 01:04:25;;;;;;;19.92;3.28;;;;;;;;;;6243902;22;20004;-78
2023/05/10 01:06:53;;;;;;;25.23;3.45;;;;;;;;;;6270407;22;20008;-77
2023/05/10 01:09:20;;;;;;;21.33;3.50;;;;;;;;;;6271732;22;20354;-77
2023/05/10 01:11:46;;;;;;;19.90;3.28;;;;;;;;;;6271571;22;20091;-77
2023/05/10 01:14:11;;;;;;;21.70;3.47;;;;;;;;;;6271293;22;20056;-77
2023/05/10 01:16:42;;;;;;;23.25;2.90;;;;;;;;;;6270468;22;20010;-77
2023/05/10 01:19:20;;;;;;;18.33;2.65;;;;;;;;;;6270517;22;20015;-77
2023/05/10 01:22:03;;;;;;;16.17;2.97;;;;;;;;;;6270099;22;20004;-77
2023/05/10 01:24:50;;;;;;;15.48;3.03;;;;;;;;;;6271505;22;20011;-77
2023/05/10 01:28:03;;;;;;;17.52;3.00;;;;;;;;;;6270529;22;20004;-77
2023/05/10 01:30:43;;;;;;;18.27;2.70;;;;;;;;;;6270458;22;20414;-77
2023/05/10 01:33:28;;;;;;;16.80;3.50;;;;;;;;;;6271062;22;20078;-77
2023/05/10 01:36:12;;;;;;;17.55;3.33;;;;;;;;;;6270184;22;20003;-76
2023/05/10 01:38:46;;;;;;;18.13;3.28;;;;;;;;;;6270466;22;20077;-77
2023/05/10 01:41:50;;;;;;;17.67;3.30;;;;;;;;;;6270309;22;20000;-78
2023/05/10 01:44:38;;;;;;;15.45;3.13;;;;;;;;;;6217433;22;20049;-78
2023/05/10 01:47:14;;;;;;;19.10;3.13;;;;;;;;;;6254264;22;20011;-78
2023/05/10 01:49:47;;;;;;;16.58;2.80;;;;;;;;;;6270463;22;20008;-79
2023/05/10 01:52:19;;;;;;;15.48;2.50;;;;;;;;;;6242093;22;20053;-77
2023/05/10 01:55:02;;;;;;;18.58;2.67;;;;;;;;;;6270471;22;20004;-77
2023/05/10 01:57:35;;;;;;;13.95;2.40;;;;;;;;;;6270366;22;20460;-78
2023/05/10 02:00:04;;;;;;;14.35;2.42;;;;;;;;;;6270782;22;20072;-78
2023/05/10 02:02:35;;;;;;;18.48;2.75;;;;;;;;;;6242754;22;20004;-77
2023/05/10 02:05:05;;;;;;;17.10;2.75;;;;;;;;;;6270471;22;20501;-78
2023/05/10 02:07:33;;;;;;;20.33;2.53;;;;;;;;;;6270714;22;20004;-76
2023/05/10 02:09:59;;;;;;;14.77;2.65;;;;;;;;;;6270905;22;20000;-76
2023/05/10 02:12:25;;;;;;;14.77;2.83;;;;;;;;;;6270302;22;20078;-76
2023/05/10 02:14:52;;;;;;;14.60;2.28;;;;;;;;;;6270433;22;20623;-77
2023/05/10 02:17:18;;;;;;;15.43;2.38;;;;;;;;;;6270142;22;19995;-76
2023/05/10 02:19:46;;;;;;;14.88;3.05;;;;;;;;;;6270278;22;20003;-77
2023/05/10 02:22:12;;;;;;;18.05;2.40;;;;;;;;;;6269367;22;20004;-77
2023/05/10 02:24:39;;;;;;;15.88;2.20;;;;;;;;;;6269888;22;20061;-76
2023/05/10 02:27:06;;;;;;;14.43;2.25;;;;;;;;;;6270439;22;20038;-76
2023/05/10 02:29:33;;;;;;;17.27;2.42;;;;;;;;;;6242934;22;20007;-76
2023/05/10 02:31:59;;;;;;;20.00;3.20;;;;;;;;;;6269528;22;20042;-77
2023/05/10 02:34:28;;;;;;;16.05;2.95;;;;;;;;;;6269896;22;20000;-77
2023/05/10 02:36:55;;;;;;;13.52;2.55;;;;;;;;;;6270294;22;20007;-77
2023/05/10 02:39:21;;;;;;;17.23;2.60;;;;;;;;;;6270073;22;20012;-76
2023/05/10 02:41:48;;;;;;;21.77;2.40;;;;;;;;;;6270033;22;20003;-76
2023/05/10 02:44:15;;;;;;;14.00;2.40;;;;;;;;;;6270226;22;20483;-76
2023/05/10 02:46:41;;;;;;;22.58;2.85;;;;;;;;;;6269689;22;20029;-76
2023/05/10 02:49:07;;;;;;;15.43;2.30;;;;;;;;;;6269836;22;20368;-76
2023/05/10 02:51:37;;;;;;;16.92;2.83;;;;;;;;;;6269887;22;20068;-77
2023/05/10 02:54:10;;;;;;;13.60;2.50;;;;;;;;;;6269798;22;20433;-76
2023/05/10 02:56:39;;;;;;;16.25;2.13;;;;;;;;;;6269520;22;20007;-76
2023/05/10 02:59:05;;;;;;;15.77;2.15;;;;;;;;;;6269171;22;20003;-76
2023/05/10 03:01:30;;;;;;;14.95;2.55;;;;;;;;;;6269600;22;20344;-76
2023/05/10 03:03:56;;;;;;;16.25;2.40;;;;;;;;;;6242635;22;20010;-76
2023/05/10 03:06:21;;;;;;;16.55;2.50;;;;;;;;;;6268941;22;20024;-76
2023/05/10 03:08:49;;;;;;;16.70;2.60;;;;;;;;;;6269604;22;20463;-76
2023/05/10 03:11:39;;;;;;;19.63;2.58;;;;;;;;;;6269570;22;20000;-76
2023/05/10 03:14:42;;;;;;;18.17;2.90;;;;;;;;;;6270323;22;19999;-76
2023/05/10 03:17:20;;;;;;;13.82;2.08;;;;;;;;;;6269080;22;20000;-76
2023/05/10 03:19:50;;;;;;;12.38;2.30;;;;;;;;;;6269644;22;20008;-76
2023/05/10 03:22:24;;;;;;;17.33;2.15;;;;;;;;;;6268948;22;20027;-76
2023/05/10 03:24:51;;;;;;;9.20;1.90;;;;;;;;;;6269880;22;20340;-76
2023/05/10 03:27:17;;;;;;;12.13;2.25;;;;;;;;;;6269532;22;20078;-76
2023/05/10 03:29:44;;;;;;;13.02;2.15;;;;;;;;;;6269523;22;20337;-76
2023/05/10 03:32:09;;;;;;;14.63;2.10;;;;;;;;;;6269382;22;20075;-76
2023/05/10 03:34:42;;;;;;;11.70;1.80;;;;;;;;;;6270000;22;20034;-76
2023/05/10 03:37:07;;;;;;;11.35;1.63;;;;;;;;;;6268575;22;20008;-77
2023/05/10 03:39:33;;;;;;;10.18;1.80;;;;;;;;;;6269097;22;20015;-76
2023/05/10 03:41:58;;;;;;;9.90;1.90;;;;;;;;;;6269610;22;20452;-76
2023/05/10 03:44:24;;;;;;;12.65;1.92;;;;;;;;;;6269742;22;20004;-77
2023/05/10 03:46:49;;;;;;;13.27;1.73;;;;;;;;;;6242241;22;20018;-76
2023/05/10 03:49:15;;;;;;;12.43;1.90;;;;;;;;;;6269136;22;20038;-77
2023/05/10 03:51:40;;;;;;;8.52;1.42;;;;;;;;;;6269087;22;20079;-76
2023/05/10 03:54:05;;;;;;;15.23;1.90;;;;;;;;;;6241933;22;20480;-77
2023/05/10 03:56:31;;;;;;;12.35;1.92;;;;;;;;;;6269494;22;20011;-77
2023/05/10 03:58:56;;;;;;;12.63;1.70;;;;;;;;;;6268874;22;20413;-77
2023/05/10 04:01:21;;;;;;;20.58;1.90;;;;;;;;;;6269285;22;20010;-76
2023/05/10 04:03:50;;;;;;;12.48;2.03;;;;;;;;;;6269424;22;20420;-76
2023/05/10 04:06:15;;;;;;;9.30;1.98;;;;;;;;;;6269230;22;20011;-76
2023/05/10 04:08:42;;;;;;;14.63;2.17;;;;;;;;;;6269354;22;20073;-77
2023/05/10 04:11:09;;;;;;;13.10;1.95;;;;;;;;;;6269148;22;20407;-77
2023/05/10 04:13:34;;;;;;;13.55;1.83;;;;;;;;;;6268960;22;20000;-76
2023/05/10 04:16:00;;;;;;;12.07;1.70;;;;;;;;;;6269300;22;20011;-76
2023/05/10 04:18:25;;;;;;;14.98;1.92;;;;;;;;;;6269410;22;20028;-76
2023/05/10 04:20:51;;;;;;;12.13;1.73;;;;;;;;;;6269364;22;20000;-76
2023/05/10 04:23:16;;;;;;;14.68;1.83;;;;;;;;;;6269118;22;19999;-76
2023/05/10 04:25:42;;;;;;;14.23;1.73;;;;;;;;;;6269306;22;20003;-76
2023/05/10 04:28:08;;;;;;;11.55;2.20;;;;;;;;;;6269804;22;20011;-76
2023/05/10 04:30:34;;;;;;;14.60;2.10;;;;;;;;;;6271224;22;20068;-77
2023/05/10 04:33:01;;;;;;;14.52;2.08;;;;;;;;;;6270951;22;20010;-77
2023/05/10 04:35:26;;;;;;;11.07;2.00;;;;;;;;;;6271514;22;20004;-78
2023/05/10 04:37:52;;;;;;;13.60;1.98;;;;;;;;;;6270551;22;20365;-78
2023/05/10 04:40:17;;;;;;;13.77;1.65;;;;;;;;;;6271038;22;20038;-77
2023/05/10 04:42:43;;;;;;;17.60;1.90;;;;;;;;;;6270946;22;20344;-78
2023/05/10 04:45:09;;;;;;;17.17;2.08;;;;;;;;;;6271101;22;20007;-76
2023/05/10 04:47:36;;;;;;;11.90;1.98;;;;;;;;;;6270938;22;20004;-78
2023/05/10 04:50:02;;;;;;;12.10;1.75;;;;;;;;;;6271533;22;20003;-76
2023/05/10 04:52:28;;;;;;;13.35;2.10;;;;;;;;;;6270765;22;20004;-78
2023/05/10 04:54:53;;;;;;;13.40;2.03;;;;;;;;;;6270934;22;20324;-77
2023/05/10 04:57:18;;;;;;;12.60;1.83;;;;;;;;;;6271016;22;20000;-77
2023/05/10 04:59:44;;;;;;;14.73;2.03;;;;;;;;;;6271116;22;20067;-77
2023/05/10 05:02:09;;;;;;;11.10;1.92;;;;;;;;;;6270878;22;20424;-76
2023/05/10 05:04:35;;;;;;;11.68;1.90;;;;;;;;;;6270353;22;20000;-78
2023/05/10 05:07:00;;;;;;;9.93;1.75;;;;;;;;;;6270160;22;20003;-77
2023/05/10 05:09:25;;;;;;;11.50;1.90;;;;;;;;;;6270426;22;20008;-78
2023/05/10 05:11:51;;;;;;;12.65;1.75;;;;;;;;;;6270829;22;20003;-77
2023/05/10 05:14:16;;;;;;;13.00;2.20;;;;;;;;;;6270437;22;20000;-76
2023/05/10 05:16:42;;;;;;;11.73;2.15;;;;;;;;;;6270924;22;20023;-77
2023/05/10 05:19:07;;;;;;;19.65;2.63;;;;;;;;;;6270086;22;20007;-77
2023/05/10 05:21:32;;;;;;;15.63;2.00;;;;;;;;;;6270599;22;20075;-77
2023/05/10 05:23:58;;;;;;;15.48;2.78;;;;;;;;;;6243193;22;20004;-77
2023/05/10 05:26:23;;;;;;;17.08;2.00;;;;;;;;;;6270776;22;20043;-78
2023/05/10 05:28:52;;;;;;;18.63;2.30;;;;;;;;;;6270523;22;20004;-76
2023/05/10 05:31:17;;;;;;;14.48;2.28;;;;;;;;;;6270852;22;20007;-77
2023/05/10 05:33:43;;;;;;;12.00;2.30;;;;;;;;;;6270953;22;20081;-78
2023/05/10 05:36:09;;;;;;;10.63;2.35;;;;;;;;;;6270351;22;20304;-76
2023/05/10 05:38:34;;;;;;;19.83;2.33;;;;;;;;;;6269301;22;20073;-76
2023/05/10 05:41:00;;;;;;;19.13;2.50;;;;;;;;;;6243370;22;20074;-76
2023/05/10 05:43:25;;;;;;;13.70;2.38;;;;;;;;;;6270219;22;20007;-76
2023/05/10 05:45:53;;;;;;;14.60;2.00;;;;;;;;;;6270814;22;20593;-76
2023/05/10 05:48:19;;;;;;;14.77;2.70;;;;;;;;;;6270735;22;20506;-76
2023/05/10 05:50:45;;;;;;;16.42;2.05;;;;;;;;;;6270783;22;20353;-76
2023/05/10 05:53:10;;;;;;;15.05;2.00;;;;;;;;;;6271041;22;20083;-79
2023/05/10 05:55:36;;;;;;;15.07;2.42;;;;;;;;;;6270924;22;20036;-76
2023/05/10 05:58:34;;;;;;;13.45;2.20;;;;;;;;;;6270381;22;20724;-76
2023/05/10 06:01:00;;;;;;;19.30;2.13;;;;;;;;;;6262713;22;20039;-76
2023/05/10 06:03:25;;;;;;;12.25;2.08;;;;;;;;;;6271023;22;20007;-76
2023/05/10 06:05:50;;;;;;;17.70;2.63;;;;;;;;;;6270171;22;20541;-75
2023/05/10 06:08:16;;;;;;;21.02;2.20;;;;;;;;;;6270121;22;20028;-78
2023/05/10 06:10:41;;;;;;;15.55;2.35;;;;;;;;;;6270095;22;20006;-75
2023/05/10 06:13:07;;;;;;;15.02;2.47;;;;;;;;;;6270419;22;20344;-77
2023/05/10 06:15:32;;;;;;;11.48;2.20;;;;;;;;;;6269917;22;20432;-77
2023/05/10 06:17:58;;;;;;;18.38;2.45;;;;;;;;;;6270302;22;20440;-77
2023/05/10 06:20:23;;;;;;;12.60;2.22;;;;;;;;;;6270146;22;20000;-77
2023/05/10 06:22:48;;;;;;;19.13;2.83;;;;;;;;;;6269870;22;20007;-77
2023/05/10 06:25:14;;;;;;;22.17;2.40;;;;;;;;;;6269995;22;20000;-75
2023/05/10 06:27:40;;;;;;;14.88;2.28;;;;;;;;;;6270543;22;19999;-78
2023/05/10 06:30:06;;;;;;;15.73;2.22;;;;;;;;;;6269523;22;20052;-77
2023/05/10 06:32:31;;;;;;;16.88;2.17;;;;;;;;;;6270088;22;20468;-76
2023/05/10 06:34:57;;;;;;;20.23;2.88;;;;;;;;;;6269796;22;20014;-78
2023/05/10 06:37:22;;;;;;;19.33;2.35;;;;;;;;;;6270011;22;20026;-77
2023/05/10 06:39:48;;;;;;;21.10;2.30;;;;;;;;;;6269302;22;20046;-78
2023/05/10 06:42:13;;;;;;;17.90;2.70;;;;;;;;;;6269984;22;20593;-77
2023/05/10 06:44:39;;;;;;;13.25;2.08;;;;;;;;;;6269836;22;20000;-79
2023/05/10 06:47:04;;;;;;;13.50;2.63;;;;;;;;;;6270419;22;20000;-78
2023/05/10 06:49:32;;;;;;;17.10;2.28;;;;;;;;;;6269779;22;20079;-76
2023/05/10 06:51:57;;;;;;;15.65;2.03;;;;;;;;;;6241853;22;20016;-77
2023/05/10 06:54:23;;;;;;;18.90;2.67;;;;;;;;;;6270023;22;20023;-78
2023/05/10 06:56:48;;;;;;;17.33;2.22;;;;;;;;;;6269921;22;20365;-77
2023/05/10 06:59:14;;;;;;;18.50;2.28;;;;;;;;;;6270539;22;20053;-76
2023/05/10 07:01:40;;;;;;;17.60;2.58;;;;;;;;;;6270211;22;20064;-76
2023/05/10 07:04:07;;;;;;;12.15;1.92;;;;;;;;;;6269883;22;20075;-77
2023/05/10 07:06:33;;;;;;;13.88;2.25;;;;;;;;;;6269521;22;20084;-78
2023/05/10 07:08:59;;;;;;;13.68;2.20;;;;;;;;;;6269488;22;20708;-76
2023/05/10 07:11:24;;;;;;;11.45;2.30;;;;;;;;;;6269605;22;20072;-77
2023/05/10 07:13:49;;;;;;;13.07;2.10;;;;;;;;;;6269809;22;20000;-77
2023/05/10 07:16:15;;;;;;;13.02;2.03;;;;;;;;;;6269719;22;20042;-77
2023/05/10 07:18:40;;;;;;;16.10;2.30;;;;;;;;;;6270126;22;20015;-78
2023/05/10 07:21:06;;;;;;;19.77;2.13;;;;;;;;;;6268814;22;20003;-78
2023/05/10 07:23:31;;;;;;;14.80;2.08;;;;;;;;;;6269200;22;20206;-77
2023/05/10 07:25:57;;;;;;;13.25;2.00;;;;;;;;;;6269309;22;20078;-78
2023/05/10 07:28:23;;;;;;;16.50;2.13;;;;;;;;;;6269948;22;20007;-77
2023/05/10 07:30:48;;;;;;;11.57;2.05;;;;;;;;;;6269671;22;20023;-78
2023/05/10 07:33:14;;;;;;;14.82;1.92;;;;;;;;;;6270005;22;20004;-80
2023/05/10 07:35:40;;;;;;;14.27;1.98;;;;;;;;;;6269484;22;20035;-79
2023/05/10 07:38:05;;;;;;;18.33;2.30;;;;;;;;;;6268949;22;20008;-78
2023/05/10 07:40:31;;;;;;;14.90;2.00;;;;;;;;;;6269355;22;20003;-77
2023/05/10 07:42:57;;;;;;;16.08;2.58;;;;;;;;;;6270026;22;20448;-78
2023/05/10 07:45:23;;;;;;;11.43;2.40;;;;;;;;;;6269252;22;20032;-76
2023/05/10 07:47:49;;;;;;;12.50;1.77;;;;;;;;;;6269308;22;20364;-77
2023/05/10 07:50:14;;;;;;;17.15;2.30;;;;;;;;;;6268845;22;20031;-77
2023/05/10 07:52:39;;;;;;;21.05;2.45;;;;;;;;;;6269141;22;20000;-77
2023/05/10 07:55:07;;;;;;;17.88;2.15;;;;;;;;;;6269403;22;20054;-76
2023/05/10 07:57:33;;;;;;;18.48;1.92;;;;;;;;;;6269609;22;20320;-76
2023/05/10 07:59:58;;;;;;;12.38;2.20;;;;;;;;;;6242009;22;20464;-76
2023/05/10 08:02:24;;;;;;;15.73;2.17;;;;;;;;;;6270101;22;20085;-77
2023/05/10 08:04:49;;;;;;;19.20;2.15;;;;;;;;;;6271012;22;20535;-78
2023/05/10 08:07:15;;;;;;;19.30;2.40;;;;;;;;;;6270984;22;20092;-79
2023/05/10 08:09:40;;;;;;;17.58;2.28;;;;;;;;;;6271348;22;20023;-77
2023/05/10 08:12:06;;;;;;;11.68;2.00;;;;;;;;;;6270707;22;20543;-80
2023/05/10 08:14:31;;;;;;;14.90;2.10;;;;;;;;;;6271362;22;20011;-78
2023/05/10 08:16:57;;;;;;;16.77;2.35;;;;;;;;;;6271505;22;20154;-77
2023/05/10 08:19:22;;;;;;;14.63;2.42;;;;;;;;;;6245005;22;20471;-76
2023/05/10 08:21:48;;;;;;;13.02;1.90;;;;;;;;;;6271339;22;20429;-77
2023/05/10 08:24:14;;;;;;;10.43;1.83;;;;;;;;;;6272027;22;20074;-79
2023/05/10 08:26:40;;;;;;;16.63;2.28;;;;;;;;;;6271864;22;20004;-77
2023/05/10 08:29:05;;;;;;;13.32;2.00;;;;;;;;;;6272401;22;20087;-76
2023/05/10 08:31:31;;;;;;;17.35;2.50;;;;;;;;;;6244671;22;20008;-77
2023/05/10 08:33:56;;;;;;;13.95;2.05;;;;;;;;;;6272568;22;20493;-77
2023/05/10 08:36:24;;;;;;;19.02;2.13;;;;;;;;;;6271300;22;20070;-77
2023/05/10 08:38:52;;;;;;;14.02;1.88;;;;;;;;;;6271947;22;20019;-77
2023/05/10 08:41:20;;;;;;;17.92;2.35;;;;;;;;;;6272080;22;20029;-77
2023/05/10 08:43:46;;;;;;;12.18;1.98;;;;;;;;;;6272245;22;20000;-76
2023/05/10 08:46:18;;;;;;;18.27;2.33;;;;;;;;;;6271753;22;20022;-78
2023/05/10 08:48:45;;;;;;;15.85;2.22;;;;;;;;;;6272288;22;20061;-77
2023/05/10 08:51:14;;;;;;;15.75;2.25;;;;;;;;;;6271017;22;20081;-77
2023/05/10 08:53:40;;;;;;;15.13;2.60;;;;;;;;;;6271930;22;20008;-79
2023/05/10 08:56:06;;;;;;;10.45;1.77;;;;;;;;;;6271607;22;20444;-77
2023/05/10 08:58:31;;;;;;;14.43;1.98;;;;;;;;;;6272319;22;20027;-78
2023/05/10 09:00:57;;;;;;;12.85;1.98;;;;;;;;;;6271904;22;20485;-77
2023/05/10 09:03:23;;;;;;;14.07;1.85;;;;;;;;;;6272101;22;20035;-77
2023/05/10 09:05:49;;;;;;;10.32;1.90;;;;;;;;;;6243938;22;20007;-78
2023/05/10 09:08:17;;;;;;;7.97;1.80;;;;;;;;;;6271998;22;20468;-77
2023/05/10 09:10:44;;;;;;;13.82;2.00;;;;;;;;;;6272223;22;20090;-78
2023/05/10 09:13:14;;;;;;;11.18;1.73;;;;;;;;;;6271841;22;20003;-77
2023/05/10 09:15:40;;;;;;;15.25;2.05;;;;;;;;;;6271913;22;20013;-77
2023/05/10 09:18:05;;;;;;;13.00;1.73;;;;;;;;;;6271866;22;20023;-79
2023/05/10 09:20:31;;;;;;;14.32;2.13;;;;;;;;;;6271623;22;20050;-77
2023/05/10 09:22:56;;;;;;;13.27;2.00;;;;;;;;;;6244377;22;20000;-77
2023/05/10 09:25:22;;;;;;;13.05;1.80;;;;;;;;;;6271403;22;20031;-79
2023/05/10 09:27:48;;;;;;;11.05;1.55;;;;;;;;;;6271972;22;20075;-78
2023/05/10 09:30:24;;;;;;;12.85;1.73;;;;;;;;;;6244886;22;20086;-76
2023/05/10 09:32:50;;;;;;;11.52;1.80;;;;;;;;;;6271329;22;20003;-78
2023/05/10 09:35:20;;;;;;;10.35;1.50;;;;;;;;;;6271791;22;20432;-79
2023/05/10 09:37:53;;;;;;;8.60;1.60;;;;;;;;;;6271203;22;20010;-77
2023/05/10 09:40:23;;;;;;;13.05;1.80;;;;;;;;;;6244189;22;20645;-77
2023/05/10 09:42:52;;;;;;;10.82;1.60;;;;;;;;;;6271468;22;20126;-76
2023/05/10 09:45:17;;;;;;;8.25;1.48;;;;;;;;;;6271270;22;20000;-75
2023/05/10 09:47:43;;;;;;;10.27;1.90;;;;;;;;;;6271176;22;20004;-76
2023/05/10 09:50:09;;;;;;;10.05;1.63;;;;;;;;;;6244318;22;20008;-75
2023/05/10 09:52:54;;;;;;;13.75;1.90;;;;;;;;;;6270609;22;20003;-78
2023/05/10 09:55:22;;;;;;;8.20;1.50;;;;;;;;;;6271365;22;20000;-79
2023/05/10 09:57:48;;;;;;;9.57;1.48;;;;;;;;;;6270933;22;20035;-77
2023/05/10 10:00:20;;;;;;;13.00;1.90;;;;;;;;;;6271724;22;20007;-77
2023/05/10 10:02:55;;;;;;;11.95;2.03;;;;;;;;;;6243852;22;20031;-79
2023/05/10 10:05:27;;;;;;;9.65;1.60;;;;;;;;;;6271280;22;20029;-77
2023/05/10 10:07:53;;;;;;;9.57;1.60;;;;;;;;;;6270264;22;20011;-77
2023/05/10 10:10:18;;;;;;;11.15;1.45;;;;;;;;;;6271381;22;20000;-77
2023/05/10 10:12:44;;;;;;;11.35;1.65;;;;;;;;;;6271087;22;20010;-78
2023/05/10 10:15:10;;;;;;;12.45;1.60;;;;;;;;;;6271247;22;20008;-77
2023/05/10 10:17:38;;;;;;;12.20;1.50;;;;;;;;;;6271006;22;20077;-77
2023/05/10 10:20:03;;;;;;;11.23;1.75;;;;;;;;;;6271398;22;20000;-77
2023/05/10 10:22:29;;;;;;;8.23;1.73;;;;;;;;;;6270334;22;20446;-77
2023/05/10 10:24:54;;;;;;;8.32;1.27;;;;;;;;;;6270839;22;20007;-77
2023/05/10 10:27:20;;;;;;;14.93;1.95;;;;;;;;;;6243315;22;20082;-77
2023/05/10 10:30:10;;;;;;;8.02;1.50;;;;;;;;;;6271138;22;20416;-77
2023/05/10 10:33:13;;;;;;;11.90;1.75;;;;;;;;;;6271004;22;20077;-77
2023/05/10 10:35:39;;;;;;;8.75;1.30;;;;;;;;;;6271342;22;20440;-78
2023/05/10 10:38:08;;;;;;;14.85;1.70;;;;;;;;;;6270175;22;20459;-77
2023/05/10 10:40:34;;;;;;;13.02;1.40;;;;;;;;;;6270921;22;20004;-78
2023/05/10 10:43:27;;;;;;;11.27;1.67;;;;;;;;;;6243553;22;20006;-78
2023/05/10 10:46:14;;;;;;;9.80;1.75;;;;;;;;;;6264849;22;20073;-79
2023/05/10 10:49:08;;;;;;;8.98;1.60;;;;;;;;;;6270876;22;20003;-78
2023/05/10 10:51:38;;;;;;;7.13;1.52;;;;;;;;;;6242831;22;20395;-77
2023/05/10 10:54:10;;;;;;;9.52;1.38;;;;;;;;;;6271109;22;20008;-78
2023/05/10 10:56:35;;;;;;;11.07;1.73;;;;;;;;;;6270580;22;19999;-80
2023/05/10 10:59:01;;;;;;;9.30;1.80;;;;;;;;;;6270771;22;20037;-81
2023/05/10 11:01:35;;;;;;;7.72;1.33;;;;;;;;;;6270820;22;20007;-80
2023/05/10 11:04:00;;;;;;;11.32;1.80;;;;;;;;;;6270873;22;20431;-80
2023/05/10 11:06:31;;;;;;;9.80;1.63;;;;;;;;;;6242634;22;20014;-78
2023/05/10 11:08:57;;;;;;;8.70;2.08;;;;;;;;;;6270947;22;19999;-80
2023/05/10 11:11:23;;;;;;;7.13;1.60;;;;;;;;;;6271141;22;20004;-80
2023/05/10 11:13:48;;;;;;;6.97;1.50;;;;;;;;;;6243768;22;20089;-78
2023/05/10 11:16:15;;;;;;;9.25;1.67;;;;;;;;;;6270869;22;20000;-77
2023/05/10 11:19:11;;;;;;;10.75;1.60;;;;;;;;;;6270581;22;20652;-77
2023/05/10 11:21:51;;;;;;;8.77;1.70;;;;;;;;;;6269098;22;20014;-76
2023/05/10 11:24:22;;;;;;;9.23;1.92;;;;;;;;;;6270825;22;19999;-78
2023/05/10 11:26:50;;;;;;;12.82;2.25;;;;;;;;;;6270409;22;20058;-77
2023/05/10 11:29:15;;;;;;;9.05;1.73;;;;;;;;;;6270427;22;20003;-77
2023/05/10 11:31:46;;;;;;;8.60;1.60;;;;;;;;;;6270579;22;20003;-77
2023/05/10 11:34:12;;;;;;;6.97;1.65;;;;;;;;;;6270311;22;20567;-77
2023/05/10 11:36:38;;;;;;;12.50;1.90;;;;;;;;;;6269538;22;19995;-77
2023/05/10 11:39:04;;;;;;;9.90;1.70;;;;;;;;;;6270123;22;20015;-76
2023/05/10 11:41:30;;;;;;;10.10;1.70;;;;;;;;;;6243195;22;20012;-76
2023/05/10 11:43:57;;;;;;;9.85;1.40;;;;;;;;;;6270126;22;20039;-77
2023/05/10 11:46:27;;;;;;;7.97;1.50;;;;;;;;;;6270132;22;20003;-78
2023/05/10 11:48:57;;;;;;;7.07;1.50;;;;;;;;;;6270023;22;20562;-77
2023/05/10 11:51:24;;;;;;;5.97;1.40;;;;;;;;;;6269883;22;20004;-77
2023/05/10 11:53:53;;;;;;;5.75;1.17;;;;;;;;;;6270086;22;20413;-77
2023/05/10 11:56:21;;;;;;;8.05;1.10;;;;;;;;;;6270499;22;20023;-77
2023/05/10 11:58:54;;;;;;;7.25;1.23;;;;;;;;;;6270188;22;20364;-77
2023/05/10 12:01:20;;;;;;;9.57;1.40;;;;;;;;;;6270529;22;20050;-77
2023/05/10 12:03:46;;;;;;;6.32;1.08;;;;;;;;;;6270353;22;20000;-76
2023/05/10 12:06:12;;;;;;;6.50;1.00;;;;;;;;;;6269833;22;20014;-77
2023/05/10 12:08:45;;;;;;;7.97;1.67;;;;;;;;;;6269927;22;20003;-77
2023/05/10 12:11:12;;;;;;;6.00;1.20;;;;;;;;;;6270641;22;20328;-76
2023/05/10 12:13:42;;;;;;;4.07;1.13;;;;;;;;;;6270092;22;20080;-77
2023/05/10 12:16:14;;;;;;;7.45;1.13;;;;;;;;;;6270489;22;20004;-78
2023/05/10 12:18:41;;;;;;;8.77;1.10;;;;;;;;;;6242617;22;20157;-78
2023/05/10 12:21:06;;;;;;;5.75;1.10;;;;;;;;;;6270105;22;20003;-77
2023/05/10 12:23:31;;;;;;;8.50;1.30;;;;;;;;;;6242526;22;20000;-77
2023/05/10 12:26:03;;;;;;;5.78;1.02;;;;;;;;;;6270130;22;20007;-77
2023/05/10 12:28:30;;;;;;;5.30;1.08;;;;;;;;;;6269640;22;20008;-76
2023/05/10 12:30:57;;;;;;;8.27;1.08;;;;;;;;;;6270185;22;20553;-77
2023/05/10 12:33:23;;;;;;;7.88;1.35;;;;;;;;;;6269961;22;20339;-76
2023/05/10 12:35:51;;;;;;;8.20;1.40;;;;;;;;;;6269690;22;20546;-77
2023/05/10 12:38:33;;;;;;;7.00;1.50;;;;;;;;;;6269524;22;20491;-76
2023/05/10 12:41:00;;;;;;;10.75;1.40;;;;;;;;;;6270496;22;20016;-77
2023/05/10 12:43:27;;;;;;;6.80;1.20;;;;;;;;;;6269979;22;20008;-76
2023/05/10 12:45:52;;;;;;;7.43;1.48;;;;;;;;;;6270073;22;20417;-76
2023/05/10 12:48:18;;;;;;;10.00;1.55;;;;;;;;;;6270006;22;20098;-76
2023/05/10 12:50:43;;;;;;;10.27;1.48;;;;;;;;;;6271982;22;20016;-76
2023/05/10 12:53:09;;;;;;;8.15;1.45;;;;;;;;;;6271091;22;20000;-76
2023/05/10 12:55:34;;;;;;;6.25;1.17;;;;;;;;;;6272059;22;20004;-76
2023/05/10 12:58:00;;;;;;;7.78;1.30;;;;;;;;;;6271836;22;20439;-76
2023/05/10 13:00:25;;;;;;;7.15;1.35;;;;;;;;;;6271962;22;19999;-77
2023/05/10 13:02:51;;;;;;;6.70;1.23;;;;;;;;;;6271355;22;20349;-76
2023/05/10 13:05:16;;;;;;;7.28;1.33;;;;;;;;;;6271727;22;20007;-76
2023/05/10 13:07:43;;;;;;;5.60;1.05;;;;;;;;;;6271302;22;20018;-76
2023/05/10 13:10:09;;;;;;;4.55;0.80;;;;;;;;;;6271619;22;20004;-76
2023/05/10 13:12:35;;;;;;;6.28;1.00;;;;;;;;;;6271932;22;20002;-76
2023/05/10 13:15:01;;;;;;;5.45;0.95;;;;;;;;;;6271786;22;20003;-77
2023/05/10 13:17:26;;;;;;;6.57;1.20;;;;;;;;;;6271802;22;20003;-77
2023/05/10 13:19:52;;;;;;;12.52;1.38;;;;;;;;;;6243843;22;20007;-77
2023/05/10 13:22:17;;;;;;;5.15;0.80;;;;;;;;;;6244197;22;20086;-78
2023/05/10 13:24:43;;;;;;;3.67;1.08;;;;;;;;;;6271601;22;19996;-76
2023/05/10 13:27:08;;;;;;;3.08;0.80;;;;;;;;;;6271601;22;20003;-77
2023/05/10 13:29:34;;;;;;;5.07;1.02;;;;;;;;;;6271578;22;20008;-76
2023/05/10 13:31:59;;;;;;;8.45;0.93;;;;;;;;;;6271759;22;20006;-77
2023/05/10 13:34:25;;;;;;;6.10;1.20;;;;;;;;;;6271380;22;20475;-76
2023/05/10 13:36:50;;;;;;;7.70;1.20;;;;;;;;;;6271572;22;20008;-78
2023/05/10 13:39:16;;;;;;;5.35;1.08;;;;;;;;;;6271453;22;20007;-76
2023/05/10 13:41:42;;;;;;;3.90;0.90;;;;;;;;;;6272141;22;19999;-76
2023/05/10 13:44:07;;;;;;;7.20;1.20;;;;;;;;;;6271195;22;20006;-76
2023/05/10 13:46:33;;;;;;;7.38;1.73;;;;;;;;;;6271264;22;20050;-76
2023/05/10 13:48:58;;;;;;;9.77;1.30;;;;;;;;;;6270611;22;20003;-76
2023/05/10 13:51:24;;;;;;;5.82;1.10;;;;;;;;;;6269766;22;20420;-76
2023/05/10 13:53:49;;;;;;;12.88;1.60;;;;;;;;;;6270856;22;20521;-77
2023/05/10 13:56:15;;;;;;;8.05;1.17;;;;;;;;;;6271511;22;20007;-77
2023/05/10 13:58:41;;;;;;;5.20;1.10;;;;;;;;;;6270759;22;20557;-76
2023/05/10 14:01:06;;;;;;;7.55;1.55;;;;;;;;;;6271070;22;20339;-78
2023/05/10 14:03:32;;;;;;;6.90;1.35;;;;;;;;;;6271221;22;20019;-76
2023/05/10 14:05:57;;;;;;;5.30;1.40;;;;;;;;;;6270884;22;20096;-76
2023/05/10 14:08:23;;;;;;;5.47;1.02;;;;;;;;;;6271109;22;20034;-77
2023/05/10 14:10:48;;;;;;;5.20;1.50;;;;;;;;;;6243921;22;20010;-76
2023/05/10 14:13:15;;;;;;;4.78;1.08;;;;;;;;;;6271240;22;20003;-76
2023/05/10 14:15:40;;;;;;;7.38;1.13;;;;;;;;;;6271139;22;20484;-77
2023/05/10 14:18:06;;;;;;;6.88;1.40;;;;;;;;;;6271032;22;20007;-77
2023/05/10 14:20:33;;;;;;;8.00;1.33;;;;;;;;;;6270742;22;20415;-76
2023/05/10 14:22:59;;;;;;;7.20;1.33;;;;;;;;;;6270478;22;19995;-76
2023/05/10 14:25:25;;;;;;;9.27;1.30;;;;;;;;;;6271105;22;20078;-77
2023/05/10 14:27:50;;;;;;;7.75;1.30;;;;;;;;;;6270843;22;20332;-77
2023/05/10 14:30:16;;;;;;;5.72;1.20;;;;;;;;;;6271154;22;20010;-75
2023/05/10 14:32:41;;;;;;;6.88;1.42;;;;;;;;;;6271123;22;20436;-79
2023/05/10 14:35:07;;;;;;;6.68;1.40;;;;;;;;;;6270952;22;20380;-78
2023/05/10 14:37:33;;;;;;;6.18;1.20;;;;;;;;;;6270677;22;20003;-77